createdAt,value
2018-07-20T00:00:39.792Z,23.50
2018-07-20T00:02:43.290Z,23.80
2018-07-20T00:04:46.951Z,23.80
2018-07-20T00:06:50.451Z,23.40
2018-07-20T00:08:53.923Z,22.40
2018-07-20T00:10:57.479Z,22.00
2018-07-20T00:13:00.987Z,22.50
2018-07-20T00:15:04.731Z,22.90
2018-07-20T00:17:08.252Z,23.10
2018-07-20T00:19:11.738Z,22.90
2018-07-20T00:21:15.281Z,22.80
2018-07-20T00:23:18.778Z,22.70
2018-07-20T00:25:22.292Z,22.60
2018-07-20T00:27:25.832Z,22.90
2018-07-20T00:29:29.366Z,23.20
2018-07-20T00:31:32.899Z,23.40
2018-07-20T00:33:36.456Z,23.60
2018-07-20T00:35:40.020Z,23.60
2018-07-20T00:37:43.612Z,23.80
2018-07-20T00:39:47.117Z,23.50
2018-07-20T00:41:50.608Z,23.10
2018-07-20T00:43:54.102Z,22.90
2018-07-20T00:45:57.629Z,22.60
2018-07-20T00:48:01.198Z,22.30
2018-07-20T00:50:05.312Z,22.30
2018-07-20T00:52:08.849Z,22.40
2018-07-20T00:54:12.502Z,22.60
2018-07-20T00:56:16.022Z,22.90
2018-07-20T00:58:19.544Z,23.00
2018-07-20T01:00:23.234Z,22.30
2018-07-20T01:02:26.940Z,22.20
2018-07-20T01:04:30.506Z,21.60
2018-07-20T01:06:34.058Z,21.70
2018-07-20T01:08:37.611Z,22.00
2018-07-20T01:10:41.138Z,22.10
2018-07-20T01:12:44.689Z,22.00
2018-07-20T01:14:48.186Z,22.30
2018-07-20T01:16:51.717Z,21.30
2018-07-20T01:18:55.206Z,21.20
2018-07-20T01:20:58.796Z,21.80
2018-07-20T01:23:02.261Z,21.40
2018-07-20T01:25:05.847Z,21.10
2018-07-20T01:27:09.405Z,21.40
2018-07-20T01:29:12.886Z,21.40
2018-07-20T01:31:16.409Z,21.90
2018-07-20T01:33:20.720Z,22.30
2018-07-20T01:35:24.237Z,22.60
2018-07-20T01:37:27.789Z,22.80
2018-07-20T01:39:31.285Z,23.00
2018-07-20T01:41:34.827Z,23.10
2018-07-20T01:43:38.347Z,23.20
2018-07-20T01:45:41.898Z,22.90
2018-07-20T01:47:45.536Z,22.90
2018-07-20T01:49:49.060Z,22.60
2018-07-20T01:51:52.659Z,22.60
2018-07-20T01:53:56.163Z,22.50
2018-07-20T01:55:59.688Z,22.10
2018-07-20T01:58:03.192Z,21.50
2018-07-20T02:02:10.180Z,21.30
2018-07-20T02:06:16.952Z,21.60
2018-07-20T02:08:20.497Z,21.90
2018-07-20T02:10:24.007Z,22.20
2018-07-20T02:12:27.495Z,21.90
2018-07-20T02:14:31.042Z,21.80
2018-07-20T02:16:34.723Z,22.10
2018-07-20T02:18:38.241Z,22.30
2018-07-20T02:20:41.815Z,22.40
2018-07-20T02:22:45.338Z,22.40
2018-07-20T02:24:48.863Z,22.40
2018-07-20T02:26:52.381Z,22.50
2018-07-20T02:28:55.859Z,22.50
2018-07-20T02:30:59.420Z,22.30
2018-07-20T02:33:02.998Z,21.80
2018-07-20T02:35:06.803Z,21.70
2018-07-20T02:37:10.343Z,21.50
2018-07-20T02:39:13.928Z,21.20
2018-07-20T02:41:17.417Z,21.20
2018-07-20T02:43:20.975Z,21.50
2018-07-20T02:45:24.514Z,20.70
2018-07-20T02:47:28.031Z,20.90
2018-07-20T02:49:31.540Z,20.50
2018-07-20T02:51:35.083Z,20.70
2018-07-20T02:53:38.618Z,20.70
2018-07-20T02:55:42.237Z,20.50
2018-07-20T02:57:45.772Z,20.30
2018-07-20T02:59:49.274Z,20.40
2018-07-20T03:03:56.051Z,21.10
2018-07-20T03:05:59.540Z,20.90
2018-07-20T03:08:03.120Z,20.80
2018-07-20T03:10:06.649Z,20.00
2018-07-20T03:12:10.177Z,20.10
2018-07-20T03:14:13.688Z,20.40
2018-07-20T03:16:17.287Z,20.10
2018-07-20T03:18:20.888Z,19.40
2018-07-20T03:20:24.430Z,19.40
2018-07-20T03:22:27.900Z,19.90
2018-07-20T03:24:31.402Z,20.10
2018-07-20T03:26:34.918Z,19.80
2018-07-20T03:28:38.458Z,19.90
2018-07-20T03:30:41.968Z,20.40
2018-07-20T03:32:45.513Z,20.60
2018-07-20T03:34:49.015Z,21.10
2018-07-20T03:36:52.633Z,21.30
2018-07-20T03:38:56.114Z,21.50
2018-07-20T03:40:59.684Z,21.60
2018-07-20T03:43:03.220Z,21.80
2018-07-20T03:45:06.855Z,21.90
2018-07-20T03:47:10.774Z,22.00
2018-07-20T03:49:14.270Z,21.90
2018-07-20T03:51:17.770Z,21.60
2018-07-20T03:53:21.269Z,21.40
2018-07-20T03:59:31.191Z,20.20
2018-07-20T04:01:34.638Z,19.80
2018-07-20T04:03:38.120Z,19.70
2018-07-20T04:05:41.826Z,19.20
2018-07-20T04:07:45.342Z,19.20
2018-07-20T04:09:48.862Z,19.60
2018-07-20T04:11:52.359Z,20.20
2018-07-20T04:13:55.839Z,20.50
2018-07-20T04:15:59.404Z,20.50
2018-07-20T04:18:02.959Z,20.70
2018-07-20T04:20:06.970Z,20.20
2018-07-20T04:22:10.449Z,19.50
2018-07-20T04:24:14.046Z,19.10
2018-07-20T04:26:17.538Z,19.00
2018-07-20T04:28:21.151Z,18.60
2018-07-20T04:30:24.687Z,18.70
2018-07-20T04:32:28.153Z,18.50
2018-07-20T04:34:31.656Z,19.00
2018-07-20T04:36:35.180Z,19.10
2018-07-20T04:38:38.701Z,19.30
2018-07-20T04:40:42.381Z,19.50
2018-07-20T04:44:49.035Z,20.60
2018-07-20T04:46:52.573Z,20.30
2018-07-20T04:48:56.151Z,20.40
2018-07-20T04:50:59.619Z,20.90
2018-07-20T04:53:03.123Z,20.50
2018-07-20T04:55:06.670Z,20.30
2018-07-20T04:57:11.010Z,20.50
2018-07-20T04:59:14.592Z,20.20
2018-07-20T05:01:18.222Z,20.40
2018-07-20T05:03:21.797Z,20.50
2018-07-20T05:05:25.315Z,20.80
2018-07-20T05:07:28.912Z,20.70
2018-07-20T05:09:32.407Z,21.00
2018-07-20T05:11:36.167Z,21.40
2018-07-20T05:13:39.650Z,21.60
2018-07-20T05:15:43.195Z,21.90
2018-07-20T05:17:46.713Z,22.20
2018-07-20T05:19:50.262Z,22.30
2018-07-20T05:21:53.738Z,22.20
2018-07-20T05:23:57.298Z,22.40
2018-07-20T05:26:00.884Z,22.40
2018-07-20T05:28:04.402Z,22.40
2018-07-20T05:30:07.950Z,22.50
2018-07-20T05:32:11.603Z,22.40
2018-07-20T05:34:15.100Z,22.30
2018-07-20T05:36:18.619Z,22.00
2018-07-20T05:38:22.101Z,22.00
2018-07-20T05:40:25.627Z,22.10
2018-07-20T05:42:29.142Z,22.20
2018-07-20T05:44:32.643Z,22.20
2018-07-20T05:46:36.560Z,22.50
2018-07-20T05:48:40.028Z,22.40
2018-07-20T05:50:43.531Z,22.60
2018-07-20T05:52:47.088Z,22.70
2018-07-20T05:54:50.718Z,22.90
2018-07-20T05:56:54.219Z,22.80
2018-07-20T05:58:57.785Z,22.90
2018-07-20T06:01:01.276Z,22.70
2018-07-20T06:03:04.854Z,22.80
2018-07-20T06:05:08.485Z,23.20
2018-07-20T06:07:11.996Z,23.40
2018-07-20T06:09:15.491Z,23.40
2018-07-20T06:11:19.019Z,23.50
2018-07-20T06:13:22.603Z,23.60
2018-07-20T06:15:26.099Z,23.60
2018-07-20T06:17:29.632Z,23.50
2018-07-20T06:19:33.431Z,23.70
2018-07-20T06:21:36.958Z,23.80
2018-07-20T06:23:40.521Z,23.70
2018-07-20T06:25:44.012Z,23.80
2018-07-20T06:27:47.555Z,24.00
2018-07-20T06:29:51.055Z,24.20
2018-07-20T06:31:54.703Z,24.20
2018-07-20T06:33:58.265Z,24.30
2018-07-20T06:36:01.776Z,24.20
2018-07-20T06:38:05.356Z,23.80
2018-07-20T06:40:08.876Z,24.10
2018-07-20T06:42:12.370Z,24.30
2018-07-20T06:44:15.884Z,23.60
2018-07-20T06:46:19.612Z,23.90
2018-07-20T06:48:23.119Z,24.20
2018-07-20T06:50:26.673Z,24.60
2018-07-20T06:52:30.263Z,24.70
2018-07-20T06:54:33.761Z,24.60
2018-07-20T06:56:37.260Z,24.80
2018-07-20T06:58:40.742Z,24.50
2018-07-20T07:00:44.229Z,24.90
2018-07-20T07:02:47.718Z,25.30
2018-07-20T07:04:51.172Z,25.40
2018-07-20T07:06:54.683Z,25.50
2018-07-20T07:08:58.435Z,25.80
2018-07-20T07:11:02.049Z,25.90
2018-07-20T07:13:05.606Z,26.00
2018-07-20T07:15:09.270Z,26.00
2018-07-20T07:17:12.799Z,26.20
2018-07-20T07:19:16.385Z,26.60
2018-07-20T07:21:19.889Z,26.50
2018-07-20T07:23:23.452Z,26.60
2018-07-20T07:25:26.966Z,26.70
2018-07-20T07:27:30.542Z,26.80
2018-07-20T07:29:34.022Z,26.80
2018-07-20T07:31:37.608Z,26.90
2018-07-20T07:33:41.084Z,26.90
2018-07-20T07:35:44.714Z,27.00
2018-07-20T07:37:48.196Z,27.10
2018-07-20T07:41:54.875Z,27.30
2018-07-20T07:43:58.451Z,27.40
2018-07-20T07:46:01.959Z,27.50
2018-07-20T07:48:05.498Z,27.60
2018-07-20T07:50:09.036Z,27.40
2018-07-20T07:52:12.656Z,27.50
2018-07-20T07:54:16.165Z,27.70
2018-07-20T07:58:22.887Z,27.60
2018-07-20T08:00:26.402Z,27.80
2018-07-20T08:02:29.999Z,27.90
2018-07-20T08:04:33.606Z,27.90
2018-07-20T08:06:37.386Z,27.90
2018-07-20T08:08:40.910Z,27.90
2018-07-20T08:10:44.460Z,27.80
2018-07-20T08:12:48.022Z,27.50
2018-07-20T08:14:51.491Z,27.60
2018-07-20T08:16:55.112Z,27.70
2018-07-20T08:18:58.645Z,27.70
2018-07-20T08:21:02.108Z,27.70
2018-07-20T08:25:08.853Z,27.30
2018-07-20T08:27:12.426Z,27.10
2018-07-20T08:29:15.986Z,27.00
2018-07-20T08:31:19.630Z,27.10
2018-07-20T08:33:23.248Z,27.10
2018-07-20T08:35:26.852Z,26.40
2018-07-20T08:37:30.372Z,26.30
2018-07-20T08:39:33.902Z,26.60
2018-07-20T08:41:37.685Z,25.90
2018-07-20T08:43:41.150Z,26.60
2018-07-20T08:45:44.652Z,27.10
2018-07-20T08:47:48.210Z,27.40
2018-07-20T08:49:51.688Z,27.10
2018-07-20T08:51:55.394Z,27.40
2018-07-20T08:53:58.836Z,27.60
2018-07-20T08:56:02.318Z,27.80
2018-07-20T08:58:06.118Z,27.90
2018-07-20T09:00:09.713Z,28.10
2018-07-20T09:02:13.270Z,28.30
2018-07-20T09:04:16.842Z,28.00
2018-07-20T09:08:23.562Z,27.80
2018-07-20T09:10:27.069Z,28.00
2018-07-20T09:12:30.626Z,28.10
2018-07-20T09:14:34.282Z,28.10
2018-07-20T09:16:37.790Z,28.20
2018-07-20T09:18:41.405Z,28.30
2018-07-20T09:22:48.113Z,28.10
2018-07-20T09:24:51.587Z,28.10
2018-07-20T09:28:58.314Z,28.40
2018-07-20T09:31:01.823Z,28.00
2018-07-20T09:33:05.442Z,28.20
2018-07-20T09:35:09.199Z,28.40
2018-07-20T09:37:12.871Z,28.50
2018-07-20T09:39:16.366Z,28.40
2018-07-20T09:41:19.870Z,28.40
2018-07-20T09:43:23.455Z,28.50
2018-07-20T09:45:26.993Z,28.50
2018-07-20T09:47:30.465Z,28.60
2018-07-20T09:49:33.986Z,28.80
2018-07-20T09:51:37.481Z,28.90
2018-07-20T09:53:41.071Z,28.40
2018-07-20T09:55:44.596Z,28.50
2018-07-20T09:57:48.119Z,28.50
2018-07-20T09:59:51.686Z,28.60
2018-07-20T10:01:55.150Z,29.00
2018-07-20T10:03:58.689Z,29.00
2018-07-20T10:06:02.304Z,28.90
2018-07-20T10:08:06.122Z,28.90
2018-07-20T10:10:09.620Z,28.80
2018-07-20T10:12:13.123Z,28.90
2018-07-20T10:14:16.811Z,28.90
2018-07-20T10:16:20.308Z,29.10
2018-07-20T10:18:23.810Z,29.20
2018-07-20T10:20:27.322Z,29.30
2018-07-20T10:22:30.859Z,29.20
2018-07-20T10:24:34.360Z,29.30
2018-07-20T10:26:37.902Z,29.30
2018-07-20T10:28:41.442Z,29.60
2018-07-20T10:30:45.080Z,29.00
2018-07-20T10:32:48.623Z,29.30
2018-07-20T10:34:52.136Z,29.60
2018-07-20T10:36:55.632Z,29.60
2018-07-20T10:38:59.242Z,29.50
2018-07-20T10:41:02.843Z,29.70
2018-07-20T10:43:06.592Z,29.80
2018-07-20T10:45:10.337Z,30.00
2018-07-20T10:47:13.800Z,29.80
2018-07-20T10:49:17.285Z,29.10
2018-07-20T10:51:20.808Z,29.70
2018-07-20T10:53:24.342Z,29.50
2018-07-20T10:55:27.856Z,28.50
2018-07-20T10:57:31.395Z,28.90
2018-07-20T10:59:34.923Z,29.50
2018-07-20T11:01:38.558Z,29.80
2018-07-20T11:05:45.314Z,30.00
2018-07-20T11:07:48.795Z,30.20
2018-07-20T11:09:52.322Z,30.30
2018-07-20T11:11:55.816Z,30.30
2018-07-20T11:13:59.275Z,30.40
2018-07-20T11:18:06.038Z,29.70
2018-07-20T11:20:09.655Z,29.90
2018-07-20T11:22:13.189Z,30.00
2018-07-20T11:24:16.707Z,30.00
2018-07-20T11:26:20.295Z,30.20
2018-07-20T11:28:23.794Z,30.00
2018-07-20T11:30:27.322Z,30.20
2018-07-20T11:32:30.820Z,30.10
2018-07-20T11:34:34.452Z,30.00
2018-07-20T11:36:38.136Z,30.30
2018-07-20T11:38:41.623Z,30.90
2018-07-20T11:40:45.231Z,31.40
2018-07-20T11:42:48.719Z,31.30
2018-07-20T11:44:52.211Z,31.20
2018-07-20T11:46:55.823Z,30.90
2018-07-20T11:48:59.347Z,30.70
2018-07-20T11:51:02.865Z,30.90
2018-07-20T11:53:06.583Z,30.50
2018-07-20T11:55:10.144Z,30.60
2018-07-20T11:57:13.617Z,30.20
2018-07-20T11:59:17.236Z,30.50
2018-07-20T12:01:20.803Z,30.80
2018-07-20T12:03:24.258Z,31.00
2018-07-20T12:05:27.774Z,31.10
2018-07-20T12:07:31.246Z,31.20
2018-07-20T12:09:34.811Z,30.90
2018-07-20T12:11:38.389Z,30.80
2018-07-20T12:13:41.918Z,29.80
2018-07-20T12:15:45.545Z,29.70
2018-07-20T12:17:49.010Z,29.50
2018-07-20T12:19:52.515Z,29.70
2018-07-20T12:21:56.027Z,29.70
2018-07-20T12:23:59.774Z,29.80
2018-07-20T12:26:03.320Z,29.70
2018-07-20T12:28:06.797Z,29.50
2018-07-20T12:30:10.288Z,29.60
2018-07-20T12:32:13.795Z,29.70
2018-07-20T12:34:17.329Z,29.20
2018-07-20T12:36:20.833Z,29.00
2018-07-20T12:38:24.419Z,29.00
2018-07-20T12:40:27.911Z,29.00
2018-07-20T12:42:31.539Z,29.20
2018-07-20T12:44:35.055Z,29.70
2018-07-20T12:46:38.731Z,29.50
2018-07-20T12:48:42.256Z,29.60
2018-07-20T12:50:45.954Z,29.60
2018-07-20T12:52:49.470Z,29.60
2018-07-20T12:54:53.074Z,29.80
2018-07-20T12:56:56.569Z,30.00
2018-07-20T12:59:00.204Z,30.00
2018-07-20T13:01:03.686Z,30.20
2018-07-20T13:03:08.215Z,29.50
2018-07-20T13:05:11.745Z,29.80
2018-07-20T13:07:15.234Z,29.60
2018-07-20T13:09:18.745Z,29.90
2018-07-20T13:11:22.316Z,30.20
2018-07-20T13:13:25.873Z,30.00
2018-07-20T13:15:29.379Z,29.70
2018-07-20T13:17:32.852Z,29.90
2018-07-20T13:19:36.410Z,30.00
2018-07-20T13:21:39.955Z,30.20
2018-07-20T13:23:43.524Z,30.50
2018-07-20T13:25:47.115Z,30.30
2018-07-20T13:27:50.607Z,30.30
2018-07-20T13:29:54.148Z,30.50
2018-07-20T13:31:57.676Z,30.30
2018-07-20T13:34:01.272Z,30.40
2018-07-20T13:36:05.258Z,30.60
2018-07-20T13:38:08.958Z,30.50
2018-07-20T13:40:12.476Z,30.70
2018-07-20T13:42:15.995Z,30.50
2018-07-20T13:44:19.552Z,30.50
2018-07-20T13:46:23.170Z,30.60
2018-07-20T13:48:26.676Z,30.50
2018-07-20T13:50:30.208Z,30.30
2018-07-20T13:52:33.775Z,30.10
2018-07-20T13:56:40.546Z,30.40
2018-07-20T13:58:44.045Z,30.10
2018-07-20T14:00:47.623Z,30.10
2018-07-20T14:02:51.188Z,29.90
2018-07-20T14:04:54.738Z,29.70
2018-07-20T14:06:58.254Z,29.90
2018-07-20T14:09:01.739Z,30.40
2018-07-20T14:11:05.263Z,30.50
2018-07-20T14:13:08.804Z,30.70
2018-07-20T14:15:12.454Z,30.50
2018-07-20T14:17:16.028Z,30.40
2018-07-20T14:19:19.492Z,30.50
2018-07-20T14:21:23.124Z,30.30
2018-07-20T14:23:26.719Z,30.30
2018-07-20T14:25:30.299Z,30.70
2018-07-20T14:27:33.871Z,30.70
2018-07-20T14:31:40.777Z,30.90
2018-07-20T14:33:44.518Z,31.00
2018-07-20T14:35:48.044Z,31.10
2018-07-20T14:37:51.607Z,31.20
2018-07-20T14:39:55.124Z,31.10
2018-07-20T14:41:58.648Z,30.80
2018-07-20T14:44:02.156Z,31.00
2018-07-20T14:46:05.818Z,30.60
2018-07-20T14:48:09.293Z,30.70
2018-07-20T14:50:12.880Z,30.70
2018-07-20T14:52:16.419Z,31.00
2018-07-20T14:54:20.051Z,31.20
2018-07-20T14:56:23.607Z,30.80
2018-07-20T14:58:27.130Z,30.90
2018-07-20T15:00:30.643Z,31.20
2018-07-20T15:02:34.193Z,31.40
2018-07-20T15:04:37.696Z,31.40
2018-07-20T15:06:41.166Z,31.40
2018-07-20T15:08:44.715Z,31.60
2018-07-20T15:10:48.259Z,31.90
2018-07-20T15:12:52.047Z,31.60
2018-07-20T15:14:55.619Z,31.60
2018-07-20T15:16:59.130Z,31.60
2018-07-20T15:19:02.627Z,31.60
2018-07-20T15:21:06.331Z,31.70
2018-07-20T15:23:09.828Z,31.70
2018-07-20T15:25:13.356Z,31.80
2018-07-20T15:27:16.894Z,31.60
2018-07-20T15:29:20.395Z,31.70
2018-07-20T15:31:23.982Z,32.00
2018-07-20T15:33:27.573Z,32.00
2018-07-20T15:35:31.087Z,32.10
2018-07-20T15:37:34.654Z,32.00
2018-07-20T15:39:38.136Z,32.10
2018-07-20T15:41:41.685Z,32.20
2018-07-20T15:43:45.200Z,31.90
2018-07-20T15:45:52.100Z,32.10
2018-07-20T15:47:52.222Z,31.50
2018-07-20T15:49:55.724Z,31.70
2018-07-20T15:54:02.872Z,32.00
2018-07-20T15:56:06.397Z,32.00
2018-07-20T15:58:09.891Z,32.20
2018-07-20T16:00:13.545Z,32.00
2018-07-20T16:02:17.064Z,31.80
2018-07-20T16:04:20.635Z,31.50
2018-07-20T16:06:24.122Z,31.50
2018-07-20T16:08:27.647Z,31.70
2018-07-20T16:10:31.163Z,31.70
2018-07-20T16:12:34.682Z,31.50
2018-07-20T16:14:38.200Z,31.60
2018-07-20T16:16:41.729Z,31.90
2018-07-20T16:18:45.233Z,31.80
2018-07-20T16:20:48.848Z,31.80
2018-07-20T16:22:52.365Z,31.70
2018-07-20T16:24:55.889Z,31.50
2018-07-20T16:26:59.406Z,31.20
2018-07-20T16:29:02.944Z,31.40
2018-07-20T16:31:06.539Z,31.40
2018-07-20T16:33:10.089Z,31.30
2018-07-20T16:35:13.599Z,30.70
2018-07-20T16:37:17.158Z,30.60
2018-07-20T16:39:20.626Z,30.60
2018-07-20T16:41:24.125Z,30.40
2018-07-20T16:43:27.666Z,30.30
2018-07-20T16:45:31.221Z,30.40
2018-07-20T16:47:34.787Z,30.50
2018-07-20T16:49:38.284Z,30.40
2018-07-20T16:51:41.818Z,30.30
2018-07-20T16:53:45.322Z,30.50
2018-07-20T16:55:48.809Z,30.50
2018-07-20T16:57:52.336Z,30.50
2018-07-20T16:59:55.810Z,30.60
2018-07-20T17:01:59.319Z,30.20
2018-07-20T17:04:02.812Z,30.30
2018-07-20T17:06:06.365Z,30.50
2018-07-20T17:08:09.846Z,30.50
2018-07-20T17:10:13.408Z,30.20
2018-07-20T17:12:16.945Z,30.10
2018-07-20T17:14:20.493Z,30.00
2018-07-20T17:16:24.095Z,29.70
2018-07-20T17:18:27.610Z,28.80
2018-07-20T17:20:31.100Z,27.90
2018-07-20T17:22:34.630Z,27.40
2018-07-20T17:24:38.102Z,27.40
2018-07-20T17:26:41.701Z,27.30
2018-07-20T17:28:45.252Z,27.50
2018-07-20T17:32:51.921Z,27.30
2018-07-20T17:34:55.494Z,27.30
2018-07-20T17:36:59.258Z,27.40
2018-07-20T17:39:02.875Z,26.90
2018-07-20T17:41:06.703Z,26.90
2018-07-20T17:43:10.254Z,26.70
2018-07-20T17:45:13.811Z,25.90
2018-07-20T17:47:17.367Z,26.10
2018-07-20T17:49:21.169Z,25.50
2018-07-20T17:51:24.669Z,25.60
2018-07-20T17:53:28.271Z,25.50
2018-07-20T17:55:32.007Z,25.70
2018-07-20T17:57:35.547Z,25.60
2018-07-20T17:59:39.094Z,25.50
2018-07-20T18:01:42.647Z,25.30
2018-07-20T18:03:46.209Z,25.40
2018-07-20T18:05:49.712Z,25.40
2018-07-20T18:07:53.251Z,25.70
2018-07-20T18:09:56.787Z,25.10
2018-07-20T18:12:00.315Z,25.10
2018-07-20T18:14:03.927Z,24.90
2018-07-20T18:16:07.541Z,24.80
2018-07-20T18:18:11.182Z,24.80
2018-07-20T18:22:17.847Z,24.60
2018-07-20T18:24:21.879Z,24.40
2018-07-20T18:26:25.415Z,24.60
2018-07-20T18:28:28.948Z,24.80
2018-07-20T18:30:32.607Z,25.10
2018-07-20T18:32:36.093Z,24.80
2018-07-20T18:34:39.619Z,24.70
2018-07-20T18:36:43.311Z,24.50
2018-07-20T18:38:46.950Z,24.60
2018-07-20T18:40:50.452Z,24.70
2018-07-20T18:42:56.303Z,24.80
2018-07-20T18:44:59.926Z,25.00
2018-07-20T18:47:03.601Z,25.20
2018-07-20T18:49:07.118Z,24.90
2018-07-20T18:51:10.695Z,25.00
2018-07-20T18:53:14.278Z,24.80
2018-07-20T18:55:17.848Z,24.80
2018-07-20T18:57:21.351Z,25.20
2018-07-20T18:59:24.892Z,25.00
2018-07-20T19:01:28.413Z,25.20
2018-07-20T19:03:31.960Z,25.50
2018-07-20T19:05:35.463Z,25.60
2018-07-20T19:07:39.019Z,25.80
2018-07-20T19:09:42.527Z,26.20
2018-07-20T19:11:46.028Z,26.20
2018-07-20T19:13:49.676Z,26.30
2018-07-20T19:15:53.331Z,26.50
2018-07-20T19:20:00.000Z,26.60
2018-07-20T19:22:03.466Z,26.50
2018-07-20T19:24:07.122Z,26.20
2018-07-20T19:28:20.729Z,26.50
2018-07-20T19:30:24.325Z,26.30
2018-07-20T19:32:27.866Z,25.70
2018-07-20T19:34:31.423Z,26.10
2018-07-20T19:36:34.978Z,26.30
2018-07-20T19:38:38.447Z,26.50
2018-07-20T19:40:42.100Z,26.40
2018-07-20T19:42:45.610Z,26.20
2018-07-20T19:44:49.104Z,25.70
2018-07-20T19:46:52.673Z,25.30
2018-07-20T19:48:56.223Z,25.30
2018-07-20T19:53:02.996Z,25.80
2018-07-20T19:55:07.170Z,25.70
2018-07-20T19:57:10.762Z,25.80
2018-07-20T19:59:14.331Z,25.70
2018-07-20T20:01:17.902Z,25.50
2018-07-20T20:03:21.446Z,25.30
2018-07-20T20:05:25.043Z,25.20
2018-07-20T20:07:28.594Z,25.30
2018-07-20T20:09:32.115Z,25.20
2018-07-20T20:11:35.659Z,25.20
2018-07-20T20:13:39.303Z,25.30
2018-07-20T20:17:46.390Z,25.50
2018-07-20T20:19:49.939Z,25.80
2018-07-20T20:21:53.450Z,25.90
2018-07-20T20:23:57.123Z,25.70
2018-07-20T20:26:00.619Z,25.80
2018-07-20T20:28:07.002Z,24.90
2018-07-20T20:30:10.638Z,24.10
2018-07-20T20:34:17.340Z,25.30
2018-07-20T20:36:20.985Z,25.00
2018-07-20T20:38:24.568Z,23.80
2018-07-20T20:40:28.091Z,23.50
2018-07-20T20:42:31.581Z,24.30
2018-07-20T20:44:35.105Z,24.90
2018-07-20T20:46:39.191Z,25.20
2018-07-20T20:48:42.695Z,25.40
2018-07-20T20:50:46.239Z,25.70
2018-07-20T20:52:49.732Z,25.30
2018-07-20T20:54:53.292Z,25.30
2018-07-20T20:56:56.886Z,25.50
2018-07-20T20:59:00.506Z,25.70
2018-07-20T21:01:04.040Z,25.80
2018-07-20T21:03:07.541Z,25.80
2018-07-20T21:05:11.096Z,25.90
2018-07-20T21:07:14.611Z,25.90
2018-07-20T21:09:18.166Z,26.00
2018-07-20T21:11:21.715Z,25.80
2018-07-20T21:13:25.324Z,25.70
2018-07-20T21:15:28.847Z,25.60
2018-07-20T21:17:32.475Z,25.70
2018-07-20T21:19:36.034Z,25.60
2018-07-20T21:21:39.530Z,25.50
2018-07-20T21:23:43.039Z,25.40
2018-07-20T21:25:46.619Z,25.00
2018-07-20T21:27:50.243Z,25.00
2018-07-20T21:29:53.802Z,24.60
2018-07-20T21:31:57.386Z,24.70
2018-07-20T21:34:00.935Z,24.80
2018-07-20T21:36:04.446Z,25.00
2018-07-20T21:38:08.060Z,25.00
2018-07-20T21:40:11.600Z,25.00
2018-07-20T21:42:15.126Z,24.80
2018-07-20T21:44:18.606Z,24.90
2018-07-20T21:46:22.196Z,24.90
2018-07-20T21:48:25.671Z,25.00
2018-07-20T21:50:29.447Z,24.80
2018-07-20T21:52:32.935Z,24.90
2018-07-20T21:54:36.457Z,24.70
2018-07-20T21:56:39.954Z,24.70
2018-07-20T21:58:43.547Z,24.80
2018-07-20T22:00:47.290Z,24.80
2018-07-20T22:02:50.799Z,24.90
2018-07-20T22:04:54.379Z,24.80
2018-07-20T22:09:01.204Z,24.80
2018-07-20T22:11:04.819Z,25.00
2018-07-20T22:13:08.435Z,24.90
2018-07-20T22:15:11.986Z,25.10
2018-07-20T22:17:15.502Z,25.10
2018-07-20T22:19:19.044Z,24.90
2018-07-20T22:21:22.663Z,25.00
2018-07-20T22:23:26.214Z,25.00
2018-07-20T22:25:29.739Z,25.10
2018-07-20T22:27:33.219Z,24.50
2018-07-20T22:29:36.734Z,24.60
2018-07-20T22:31:40.280Z,24.80
2018-07-20T22:33:43.836Z,25.00
2018-07-20T22:35:47.331Z,25.20
2018-07-20T22:37:50.963Z,25.10
2018-07-20T22:39:54.469Z,25.20
2018-07-20T22:41:58.009Z,25.20
2018-07-20T22:44:01.554Z,25.00
2018-07-20T22:46:05.429Z,25.20
2018-07-20T22:48:08.951Z,25.30
2018-07-20T22:50:12.471Z,25.50
2018-07-20T22:52:15.983Z,25.60
2018-07-20T22:54:19.484Z,25.60
2018-07-20T22:56:23.036Z,25.30
2018-07-20T22:58:26.627Z,25.30
2018-07-20T23:00:30.189Z,25.10
2018-07-20T23:02:33.694Z,25.10
2018-07-20T23:04:37.372Z,25.20
2018-07-20T23:06:40.889Z,25.30
2018-07-20T23:10:47.896Z,25.40
2018-07-20T23:12:51.492Z,25.70
2018-07-20T23:14:54.983Z,25.30
2018-07-20T23:16:58.546Z,25.30
2018-07-20T23:19:02.044Z,25.40
2018-07-20T23:21:05.664Z,25.30
2018-07-20T23:23:09.091Z,25.30
2018-07-20T23:25:12.570Z,25.20
2018-07-20T23:27:16.092Z,25.20
2018-07-20T23:29:19.660Z,25.20
2018-07-20T23:31:23.143Z,25.40
2018-07-20T23:33:26.642Z,25.20
2018-07-20T23:35:30.292Z,25.30
2018-07-20T23:37:33.862Z,25.30
2018-07-20T23:39:37.376Z,25.50
2018-07-20T23:41:40.967Z,25.70
2018-07-20T23:43:44.448Z,25.50
2018-07-20T23:45:47.943Z,25.30
2018-07-20T23:47:51.458Z,25.20
2018-07-20T23:49:55.060Z,25.50
2018-07-20T23:51:58.563Z,25.50
2018-07-20T23:54:02.093Z,25.60
2018-07-20T23:56:06.110Z,25.50
2018-07-20T23:58:09.602Z,25.60
